createdAt,value
2022-07-31T00:01:01.069Z,78.65
2022-07-31T00:04:04.119Z,78.98
2022-07-31T00:07:06.910Z,79.67
2022-07-31T00:10:10.431Z,79.00
2022-07-31T00:13:13.052Z,79.04
2022-07-31T00:16:17.383Z,79.49
2022-07-31T00:19:20.064Z,78.51
2022-07-31T00:22:23.155Z,79.18
2022-07-31T00:25:25.920Z,79.30
2022-07-31T00:28:28.846Z,79.54
2022-07-31T00:31:31.408Z,79.43
2022-07-31T00:34:34.267Z,78.69
2022-07-31T00:37:38.225Z,78.94
2022-07-31T00:40:47.962Z,79.80
2022-07-31T00:43:50.761Z,79.62
2022-07-31T00:46:53.760Z,79.53
2022-07-31T00:49:56.468Z,78.59
2022-07-31T00:52:59.305Z,78.21
2022-07-31T00:56:01.938Z,78.33
2022-07-31T00:59:05.095Z,77.94
2022-07-31T01:02:10.327Z,78.66
2022-07-31T01:05:13.210Z,77.70
2022-07-31T01:08:16.195Z,77.22
2022-07-31T01:11:29.125Z,77.70
2022-07-31T01:14:37.266Z,77.27
2022-07-31T01:17:40.586Z,77.05
2022-07-31T01:20:45.402Z,77.62
2022-07-31T01:23:57.591Z,76.81
2022-07-31T01:27:33.359Z,76.83
2022-07-31T01:31:17.231Z,76.37
2022-07-31T01:34:52.490Z,75.45
2022-07-31T01:38:20.990Z,75.49
2022-07-31T01:41:27.421Z,75.33
2022-07-31T01:44:39.372Z,75.32
2022-07-31T01:47:42.268Z,75.73
2022-07-31T01:50:47.833Z,75.70
2022-07-31T01:53:51.364Z,75.53
2022-07-31T01:56:55.127Z,75.37
2022-07-31T02:00:01.409Z,75.61
2022-07-31T02:03:09.971Z,74.95
2022-07-31T02:06:15.230Z,75.36
2022-07-31T02:09:19.754Z,74.31
2022-07-31T02:12:31.979Z,74.94
2022-07-31T02:15:37.000Z,74.32
2022-07-31T02:18:40.782Z,74.36
2022-07-31T02:21:44.099Z,74.13
2022-07-31T02:24:47.423Z,74.80
2022-07-31T02:27:54.220Z,73.72
2022-07-31T02:31:01.695Z,74.33
2022-07-31T02:34:05.392Z,73.67
2022-07-31T02:37:08.726Z,74.55
2022-07-31T02:40:13.602Z,73.71
2022-07-31T02:43:17.114Z,73.64
2022-07-31T02:46:19.922Z,73.35
2022-07-31T02:49:22.974Z,72.42
2022-07-31T02:52:26.494Z,72.95
2022-07-31T02:55:29.604Z,72.34
2022-07-31T02:58:32.232Z,72.49
2022-07-31T03:01:36.264Z,72.78
2022-07-31T03:04:39.201Z,72.90
2022-07-31T03:07:43.125Z,73.10
2022-07-31T03:10:45.840Z,72.85
2022-07-31T03:13:49.174Z,73.19
2022-07-31T03:16:52.608Z,72.74
2022-07-31T03:19:56.084Z,72.84
2022-07-31T03:23:00.215Z,72.68
2022-07-31T03:26:05.150Z,72.76
2022-07-31T03:29:43.478Z,72.85
2022-07-31T03:32:31.043Z,72.48
2022-07-31T03:35:34.152Z,73.20
2022-07-31T03:38:50.146Z,72.21
2022-07-31T03:41:55.738Z,72.78
2022-07-31T03:44:58.762Z,72.49
2022-07-31T03:48:02.277Z,72.69
2022-07-31T03:51:06.831Z,73.33
2022-07-31T03:54:09.556Z,73.20
2022-07-31T03:57:13.030Z,73.40
2022-07-31T04:00:17.933Z,73.15
2022-07-31T04:03:20.998Z,73.11
2022-07-31T04:06:25.014Z,72.86
2022-07-31T04:09:28.069Z,73.37
2022-07-31T04:12:30.836Z,73.25
2022-07-31T04:15:34.080Z,71.94
2022-07-31T04:18:36.647Z,73.64
2022-07-31T04:21:39.750Z,72.23
2022-07-31T04:24:42.427Z,72.87
2022-07-31T04:27:47.893Z,72.94
2022-07-31T04:30:52.066Z,73.45
2022-07-31T04:33:57.051Z,74.55
2022-07-31T04:37:00.002Z,74.84
2022-07-31T04:40:03.210Z,75.56
2022-07-31T04:43:06.083Z,74.12
2022-07-31T04:46:17.527Z,74.85
2022-07-31T04:49:20.799Z,76.39
2022-07-31T04:52:24.067Z,76.56
2022-07-31T04:55:26.737Z,75.49
2022-07-31T04:58:29.770Z,76.33
2022-07-31T05:01:32.843Z,75.85
2022-07-31T05:04:36.211Z,75.90
2022-07-31T05:07:38.962Z,74.60
2022-07-31T05:11:00.829Z,75.21
2022-07-31T05:14:05.410Z,75.58
2022-07-31T05:17:08.344Z,76.96
2022-07-31T05:20:14.906Z,78.07
2022-07-31T05:23:18.034Z,77.70
2022-07-31T05:26:21.137Z,78.99
2022-07-31T05:29:24.061Z,80.65
2022-07-31T05:32:26.762Z,83.76
2022-07-31T05:35:29.630Z,85.44
2022-07-31T05:38:32.457Z,86.11
2022-07-31T05:41:36.552Z,86.29
2022-07-31T05:44:39.313Z,87.20
2022-07-31T05:47:42.194Z,87.51
2022-07-31T05:50:46.387Z,86.90
2022-07-31T05:53:49.311Z,87.91
2022-07-31T05:56:54.109Z,88.20
2022-07-31T05:59:57.508Z,88.12
2022-07-31T06:03:02.592Z,88.87
2022-07-31T06:06:07.230Z,88.63
2022-07-31T06:09:09.872Z,89.50
2022-07-31T06:12:13.307Z,89.75
2022-07-31T06:15:15.943Z,89.25
2022-07-31T06:18:19.456Z,90.30
2022-07-31T06:24:25.447Z,90.34
2022-07-31T06:27:33.836Z,90.06
2022-07-31T06:30:37.944Z,90.86
2022-07-31T06:33:40.488Z,89.97
2022-07-31T06:36:51.590Z,89.63
2022-07-31T06:39:56.109Z,90.36
2022-07-31T06:43:06.714Z,91.21
2022-07-31T06:46:14.080Z,90.86
2022-07-31T06:49:22.076Z,91.56
2022-07-31T06:52:24.967Z,90.98
2022-07-31T06:55:28.150Z,90.44
2022-07-31T06:58:32.086Z,91.50
2022-07-31T07:01:35.363Z,90.74
2022-07-31T07:05:06.116Z,90.63
2022-07-31T07:08:01.237Z,90.00
2022-07-31T07:11:04.168Z,90.23
2022-07-31T07:14:07.247Z,90.32
2022-07-31T07:17:09.891Z,91.02
2022-07-31T07:20:13.853Z,91.35
2022-07-31T07:23:16.891Z,90.47
2022-07-31T07:26:20.385Z,91.03
2022-07-31T07:29:24.451Z,90.53
2022-07-31T07:32:27.695Z,90.54
2022-07-31T07:35:34.000Z,89.91
2022-07-31T07:38:38.551Z,89.84
2022-07-31T07:41:41.850Z,90.11
2022-07-31T07:44:44.713Z,89.49
2022-07-31T07:47:53.619Z,89.64
2022-07-31T07:51:09.047Z,90.22
2022-07-31T07:54:12.128Z,89.80
2022-07-31T07:57:20.720Z,88.29
2022-07-31T08:00:36.504Z,87.11
2022-07-31T08:03:49.636Z,88.80
2022-07-31T08:06:54.435Z,87.20
2022-07-31T08:09:59.411Z,86.27
2022-07-31T08:13:02.703Z,85.97
2022-07-31T08:16:08.630Z,84.57
2022-07-31T08:19:11.415Z,85.47
2022-07-31T08:22:15.298Z,83.49
2022-07-31T08:25:18.960Z,82.66
2022-07-31T08:28:25.045Z,82.05
2022-07-31T08:31:28.648Z,82.36
2022-07-31T08:34:32.639Z,80.74
2022-07-31T08:38:01.182Z,80.46
2022-07-31T08:40:58.956Z,78.57
2022-07-31T08:44:04.401Z,78.79
2022-07-31T08:47:12.712Z,78.51
2022-07-31T08:50:16.233Z,76.67
2022-07-31T08:53:20.828Z,77.11
2022-07-31T08:56:25.788Z,77.33
2022-07-31T08:59:28.774Z,77.22
2022-07-31T09:02:32.576Z,74.88
2022-07-31T09:05:41.791Z,72.53
2022-07-31T09:08:46.373Z,73.52
2022-07-31T09:11:50.560Z,72.74
2022-07-31T09:14:54.931Z,72.61
2022-07-31T09:17:57.996Z,72.28
2022-07-31T09:21:07.358Z,71.04
2022-07-31T09:24:11.581Z,71.59
2022-07-31T09:27:17.475Z,71.81
2022-07-31T09:30:20.617Z,71.24
2022-07-31T09:33:28.209Z,71.72
2022-07-31T09:36:32.663Z,70.29
2022-07-31T09:39:36.477Z,69.68
2022-07-31T09:42:48.266Z,68.15
2022-07-31T09:46:00.648Z,66.94
2022-07-31T09:49:04.042Z,66.45
2022-07-31T09:52:06.687Z,67.68
2022-07-31T09:55:16.064Z,66.02
2022-07-31T09:58:20.682Z,66.97
2022-07-31T10:01:24.064Z,66.07
2022-07-31T10:04:27.306Z,64.98
2022-07-31T10:07:33.250Z,63.96
2022-07-31T10:10:37.533Z,63.74
2022-07-31T10:13:45.474Z,63.21
2022-07-31T10:16:49.030Z,62.57
2022-07-31T10:19:55.331Z,61.85
2022-07-31T10:23:22.226Z,61.35
2022-07-31T10:26:50.339Z,60.75
2022-07-31T10:29:49.408Z,60.80
2022-07-31T10:32:51.997Z,60.43
2022-07-31T10:36:06.113Z,59.75
2022-07-31T10:39:32.415Z,62.63
2022-07-31T10:42:47.998Z,60.15
2022-07-31T10:45:52.935Z,61.70
2022-07-31T10:48:56.559Z,59.80
2022-07-31T10:52:01.380Z,59.12
2022-07-31T10:55:25.169Z,58.50
2022-07-31T10:58:28.178Z,58.77
2022-07-31T11:01:31.923Z,58.05
2022-07-31T11:04:34.992Z,58.19
2022-07-31T11:07:41.298Z,59.96
2022-07-31T11:10:50.681Z,61.20
2022-07-31T11:13:58.112Z,60.50
2022-07-31T11:17:02.016Z,61.40
2022-07-31T11:20:26.020Z,61.43
2022-07-31T11:23:33.033Z,61.64
2022-07-31T11:26:41.253Z,61.48
2022-07-31T11:30:00.202Z,62.26
2022-07-31T11:33:06.235Z,63.02
2022-07-31T11:36:24.577Z,62.69
2022-07-31T11:39:36.789Z,62.14
2022-07-31T11:42:46.085Z,62.02
2022-07-31T11:45:51.374Z,62.61
2022-07-31T11:48:55.048Z,62.11
2022-07-31T11:52:05.451Z,62.77
2022-07-31T11:55:13.274Z,62.81
2022-07-31T11:58:17.357Z,62.10
2022-07-31T12:01:25.059Z,62.30
2022-07-31T12:04:28.443Z,61.92
2022-07-31T12:07:31.708Z,63.01
2022-07-31T12:10:34.781Z,63.15
2022-07-31T12:13:37.469Z,63.58
2022-07-31T12:16:41.731Z,62.62
2022-07-31T12:19:44.358Z,63.05
2022-07-31T12:22:47.253Z,62.36
2022-07-31T12:25:49.979Z,62.04
2022-07-31T12:29:12.966Z,61.98
2022-07-31T12:32:24.286Z,61.89
2022-07-31T12:35:55.083Z,61.27
2022-07-31T12:39:04.994Z,62.29
2022-07-31T12:42:07.960Z,62.90
2022-07-31T12:45:18.513Z,63.11
2022-07-31T12:48:23.162Z,64.57
2022-07-31T12:51:46.016Z,65.30
2022-07-31T12:54:48.898Z,66.34
2022-07-31T12:57:52.323Z,67.30
2022-07-31T13:00:57.221Z,67.56
2022-07-31T13:04:00.189Z,67.69
2022-07-31T13:07:06.582Z,68.77
2022-07-31T13:10:19.926Z,67.74
2022-07-31T13:13:25.649Z,68.06
2022-07-31T13:16:28.470Z,66.77
2022-07-31T13:19:31.442Z,68.33
2022-07-31T13:22:33.975Z,67.13
2022-07-31T13:25:36.832Z,66.15
2022-07-31T13:28:39.441Z,66.92
2022-07-31T13:31:42.516Z,66.55
2022-07-31T13:34:45.029Z,67.57
2022-07-31T13:37:48.184Z,66.77
2022-07-31T13:41:10.164Z,65.79
2022-07-31T13:44:13.038Z,65.55
2022-07-31T13:47:15.630Z,65.91
2022-07-31T13:50:18.871Z,65.88
2022-07-31T13:53:21.515Z,66.31
2022-07-31T13:56:39.202Z,65.61
2022-07-31T13:59:45.667Z,65.66
2022-07-31T14:02:50.083Z,65.27
2022-07-31T14:05:54.196Z,66.29
2022-07-31T14:08:57.301Z,66.01
2022-07-31T14:12:03.785Z,66.35
2022-07-31T14:15:08.444Z,66.85
2022-07-31T14:18:12.013Z,65.85
2022-07-31T14:21:16.480Z,66.71
2022-07-31T14:24:19.434Z,66.09
2022-07-31T14:27:21.987Z,64.91
2022-07-31T14:30:25.142Z,65.05
2022-07-31T14:33:28.589Z,64.84
2022-07-31T14:36:31.482Z,65.55
2022-07-31T14:39:34.080Z,65.73
2022-07-31T14:42:37.047Z,64.92
2022-07-31T14:45:51.742Z,64.85
2022-07-31T14:48:55.126Z,64.97
2022-07-31T14:51:57.728Z,66.59
2022-07-31T14:55:01.243Z,68.60
2022-07-31T14:58:04.357Z,72.15
2022-07-31T15:01:07.352Z,73.27
2022-07-31T15:04:10.068Z,72.98
2022-07-31T15:07:34.111Z,74.30
2022-07-31T15:10:35.865Z,75.57
2022-07-31T15:13:39.131Z,75.27
2022-07-31T15:16:41.785Z,73.67
2022-07-31T15:19:44.778Z,73.12
2022-07-31T15:22:47.983Z,73.55
2022-07-31T15:25:50.891Z,73.87
2022-07-31T15:28:53.624Z,73.09
2022-07-31T15:31:56.439Z,72.71
2022-07-31T15:34:58.945Z,70.70
2022-07-31T15:38:03.309Z,69.40
2022-07-31T15:41:05.846Z,68.85
2022-07-31T15:44:08.700Z,69.27
2022-07-31T15:47:11.285Z,68.25
2022-07-31T15:50:16.411Z,67.40
2022-07-31T15:53:18.895Z,68.74
2022-07-31T15:56:21.851Z,66.96
2022-07-31T15:59:25.023Z,65.28
2022-07-31T16:02:27.949Z,65.66
2022-07-31T16:05:37.064Z,63.61
2022-07-31T16:08:41.554Z,63.24
2022-07-31T16:12:02.950Z,63.03
2022-07-31T16:15:07.876Z,62.50
2022-07-31T16:18:18.491Z,61.79
2022-07-31T16:21:21.932Z,61.85
2022-07-31T16:24:24.926Z,60.87
2022-07-31T16:27:27.571Z,61.93
2022-07-31T16:30:31.037Z,62.99
2022-07-31T16:33:33.611Z,62.42
2022-07-31T16:36:36.485Z,62.42
2022-07-31T16:39:39.052Z,61.48
2022-07-31T16:42:41.940Z,61.90
2022-07-31T16:45:44.472Z,61.45
2022-07-31T16:48:48.098Z,62.74
2022-07-31T16:51:50.704Z,62.68
2022-07-31T16:54:54.189Z,61.59
2022-07-31T16:57:56.693Z,62.28
2022-07-31T17:00:59.795Z,61.39
2022-07-31T17:04:04.429Z,60.94
2022-07-31T17:07:07.768Z,61.16
2022-07-31T17:10:10.962Z,60.32
2022-07-31T17:13:14.337Z,61.96
2022-07-31T17:16:16.962Z,61.33
2022-07-31T17:19:41.051Z,62.37
2022-07-31T17:22:54.147Z,62.02
2022-07-31T17:25:57.330Z,60.83
2022-07-31T17:29:00.467Z,62.30
2022-07-31T17:32:03.660Z,59.68
2022-07-31T17:35:07.436Z,60.68
2022-07-31T17:38:10.852Z,59.30
2022-07-31T17:41:24.595Z,60.78
2022-07-31T17:44:28.703Z,60.19
2022-07-31T17:47:31.377Z,60.53
2022-07-31T17:50:35.432Z,60.14
2022-07-31T17:53:54.816Z,61.27
2022-07-31T17:57:01.884Z,59.60
2022-07-31T18:00:06.077Z,60.98
2022-07-31T18:03:09.811Z,61.53
2022-07-31T18:06:12.357Z,62.91
2022-07-31T18:09:19.059Z,63.48
2022-07-31T18:12:22.682Z,64.14
2022-07-31T18:15:34.444Z,64.63
2022-07-31T18:18:38.326Z,65.39
2022-07-31T18:21:41.783Z,65.44
2022-07-31T18:24:44.354Z,65.99
2022-07-31T18:27:47.283Z,65.21
2022-07-31T18:30:52.986Z,66.09
2022-07-31T18:33:55.921Z,66.25
2022-07-31T18:36:58.495Z,66.19
2022-07-31T18:40:01.413Z,67.00
2022-07-31T18:43:05.355Z,66.81
2022-07-31T18:46:08.270Z,68.07
2022-07-31T18:51:02.052Z,67.06
2022-07-31T18:52:33.767Z,67.05
2022-07-31T18:55:36.267Z,68.38
2022-07-31T18:58:41.393Z,68.19
2022-07-31T19:01:43.946Z,69.02
2022-07-31T19:04:46.801Z,68.72
2022-07-31T19:07:49.828Z,68.61
2022-07-31T19:10:55.836Z,68.47
2022-07-31T19:13:58.375Z,67.74
2022-07-31T19:17:01.958Z,66.96
2022-07-31T19:20:07.333Z,67.11
2022-07-31T19:23:15.834Z,66.85
2022-07-31T19:26:18.649Z,66.34
2022-07-31T19:29:22.127Z,65.66
2022-07-31T19:32:27.100Z,64.55
2022-07-31T19:35:30.002Z,64.75
2022-07-31T19:38:33.576Z,64.72
2022-07-31T19:41:37.013Z,64.26
2022-07-31T19:44:39.906Z,63.83
2022-07-31T19:47:43.253Z,63.99
2022-07-31T19:50:45.939Z,63.51
2022-07-31T19:53:48.913Z,64.90
2022-07-31T19:56:51.499Z,64.86
2022-07-31T19:59:54.507Z,64.82
2022-07-31T20:02:57.131Z,64.53
2022-07-31T20:06:00.315Z,65.32
2022-07-31T20:09:04.769Z,65.92
2022-07-31T20:12:08.520Z,66.01
2022-07-31T20:15:11.447Z,65.51
2022-07-31T20:18:26.719Z,65.54
2022-07-31T20:21:35.237Z,65.56
2022-07-31T20:24:38.826Z,66.36
2022-07-31T20:27:41.608Z,66.23
2022-07-31T20:30:44.758Z,67.15
2022-07-31T20:33:57.906Z,66.76
2022-07-31T20:37:01.271Z,67.43
2022-07-31T20:40:04.394Z,67.41
2022-07-31T20:43:07.682Z,68.34
2022-07-31T20:46:11.866Z,68.24
2022-07-31T20:49:19.320Z,67.95
2022-07-31T20:52:37.207Z,68.75
2022-07-31T20:55:40.072Z,68.48
2022-07-31T20:58:42.778Z,68.31
2022-07-31T21:01:45.684Z,68.46
2022-07-31T21:04:48.208Z,68.45
2022-07-31T21:07:51.035Z,68.21
2022-07-31T21:10:53.869Z,68.14
2022-07-31T21:13:56.775Z,68.04
2022-07-31T21:16:59.720Z,68.97
2022-07-31T21:20:07.334Z,69.15
2022-07-31T21:23:10.099Z,69.37
2022-07-31T21:26:14.457Z,69.82
2022-07-31T21:29:17.568Z,70.14
2022-07-31T21:32:20.791Z,69.84
2022-07-31T21:35:36.783Z,69.93
2022-07-31T21:38:40.620Z,69.43
2022-07-31T21:41:43.487Z,69.33
2022-07-31T21:44:46.582Z,69.54
2022-07-31T21:47:53.177Z,69.42
2022-07-31T21:50:56.550Z,70.30
2022-07-31T21:53:59.149Z,71.01
2022-07-31T21:57:02.862Z,71.14
2022-07-31T22:00:13.822Z,71.22
2022-07-31T22:03:16.970Z,71.44
2022-07-31T22:06:38.083Z,71.02
2022-07-31T22:09:40.887Z,71.47
2022-07-31T22:12:47.368Z,72.32
2022-07-31T22:15:58.429Z,71.54
2022-07-31T22:19:04.611Z,70.91
2022-07-31T22:22:08.185Z,70.99
2022-07-31T22:25:12.591Z,71.50
2022-07-31T22:28:17.440Z,71.17
2022-07-31T22:31:20.177Z,71.11
2022-07-31T22:34:37.188Z,71.54
2022-07-31T22:37:41.596Z,72.12
2022-07-31T22:40:44.600Z,72.65
2022-07-31T22:44:10.443Z,72.20
2022-07-31T22:47:10.603Z,71.91
2022-07-31T22:50:14.339Z,71.54
2022-07-31T22:53:17.687Z,71.66
2022-07-31T22:56:20.251Z,71.12
2022-07-31T22:59:23.112Z,71.07
2022-07-31T23:02:25.788Z,71.24
2022-07-31T23:05:28.675Z,71.81
2022-07-31T23:08:54.596Z,71.60
2022-07-31T23:11:59.082Z,72.78
2022-07-31T23:15:01.820Z,72.50
2022-07-31T23:18:06.082Z,73.30
2022-07-31T23:21:08.622Z,72.90
2022-07-31T23:24:13.393Z,72.21
2022-07-31T23:27:16.029Z,72.08
2022-07-31T23:30:19.013Z,72.30
2022-07-31T23:33:21.719Z,72.42
2022-07-31T23:36:24.674Z,72.33
2022-07-31T23:39:27.689Z,72.41
2022-07-31T23:42:39.802Z,73.00
2022-07-31T23:45:42.353Z,73.63
2022-07-31T23:48:46.978Z,73.73
2022-07-31T23:51:49.569Z,73.97
2022-07-31T23:54:52.476Z,74.09
2022-07-31T23:57:55.002Z,74.33
